Hlavní strana
METAR-TAF:

METAR-TAF

Letiště :

Aktau, Kazachstán

zeměpisná šířka: 43-52-12N, zeměpisná délka: 051-06E, výška: 22 m

Aktuální stav počasí

Zpráva byla vytvořena před 40 minutami, v 22:00 UTC
Severovýchodní vítr 4 kt
Teplota 1°C
Vlhkost vzduchu 93%
Tlak 1020 hPa
Viditelnost 10 km a více
Polojasno ve výšce 2000 ft

METAR: UATE 252200Z 05002MPS 9999 SCT020 01/M00 Q1020 R12/0///70 NOSIG RMK QFE763/1017

Čas: 03:40 (22:40 UTC)

Předpověď počasí

Zpráva byla vytvořena před 5 hodinami a 38 minutami, v 17:02 UTC
Předpověď platná od 25 v 18 UTC do 26 v 18 UTC
vítr z různých směrů 4 kt
Viditelnost 10 km a více
Polojasno ve výšce 700 ft
Dočasný
od 25 v 20 UTC do 26 v 03 UTC
Viditelnost: 2000 m
Oblačno až skoro zataženo ve výšce 300 ft
kouřmo

TAF: UATE 251702Z 2518/2618 VRB02MPS 9999 SCT007 TX10/2610Z TN00/2602Z TEMPO 2520/2603 2000 BR BKN003

Stav a předpovědi počasí z více než 4 000 letišť (zprávy METAR a TAF).

Červené a žluté tečky na mapě představují dostupné meteorologické stanice.

Když kurzor umístíte na tečku, zobrazí se název stanice.

Pak kliknutím zobrazíte stav a předpověď počasí.

Chcete-li změnit mapu, kliknutím na zelené tlačítko se znaménkem +mapu přiblížíte, kliknutím na zelené tlačítko se znaménkem – mapu oddálíte a kliknutím na zelené šipky přejdete na sousední mapy.


METAR-TAF: